Time;durP1;ratioP1;P1;durP2;ratioP2;P2;SDS_P1;SDS_P2;PMS_P1;PMS_P2;Temp;Humidity;BMP_temperature;BMP_pressure;BME280_temperature;BME280_humidity;BME280_pressure;Samples;Min_cycle;Max_cycle;Signal;HPM_P1;HPM_P2
2022/07/03 00:00:25;;;;;;;;;;;13.10;99.90;;;;;;5076940;28;19947;-80
2022/07/03 00:02:50;;;;;;;;;;;13.10;99.90;;;;;;5074174;28;19938;-81
2022/07/03 00:05:16;;;;;;;;;;;13.00;99.90;;;;;;5073836;28;20392;-81
2022/07/03 00:07:41;;;;;;;;;;;12.90;99.90;;;;;;5075690;28;20012;-81
2022/07/03 00:10:07;;;;;;;;;;;12.90;99.90;;;;;;5074617;28;19999;-80
2022/07/03 00:12:33;;;;;;;;;;;12.80;99.90;;;;;;5074114;28;20382;-81
2022/07/03 00:14:58;;;;;;;;;;;12.80;99.90;;;;;;5074262;28;20121;-80
2022/07/03 00:17:24;;;;;;;;;;;12.80;99.90;;;;;;5073884;28;19999;-80
2022/07/03 00:19:49;;;;;;;;;;;12.70;99.90;;;;;;5079380;28;19908;-79
2022/07/03 00:22:15;;;;;;;;;;;12.70;99.90;;;;;;5083019;28;20292;-78
2022/07/03 00:24:40;;;;;;;;;;;12.70;99.90;;;;;;5090389;28;19921;-80
2022/07/03 00:27:07;;;;;;;;;;;12.70;99.90;;;;;;5075940;28;19912;-80
2022/07/03 00:29:37;;;;;;;;;;;12.70;99.90;;;;;;5072607;28;19915;-80
2022/07/03 00:32:03;;;;;;;;;;;12.70;99.90;;;;;;5073142;28;19942;-80
2022/07/03 00:34:29;;;;;;;;;;;12.70;99.90;;;;;;5074540;28;19908;-80
2022/07/03 00:36:57;;;;;;;;;;;12.60;99.90;;;;;;5074898;28;19920;-80
2022/07/03 00:39:22;;;;;;;;;;;12.60;99.90;;;;;;5075087;28;19909;-80
2022/07/03 00:41:58;;;;;;;;;;;12.60;99.90;;;;;;5073093;28;19959;-79
2022/07/03 00:44:25;;;;;;;;;;;12.60;99.90;;;;;;5071322;28;19944;-79
2022/07/03 00:46:52;;;;;;;;;;;12.50;99.90;;;;;;5073423;28;19912;-79
2022/07/03 00:49:18;;;;;;;;;;;12.50;99.90;;;;;;5073863;28;19912;-80
2022/07/03 00:51:50;;;;;;;;;;;12.50;99.90;;;;;;5073073;28;19917;-80
2022/07/03 00:54:17;;;;;;;;;;;12.50;99.90;;;;;;5073019;28;19923;-80
2022/07/03 00:56:46;;;;;;;;;;;12.40;99.90;;;;;;5073268;28;19958;-80
2022/07/03 00:59:12;;;;;;;;;;;12.50;99.90;;;;;;5073035;28;19943;-80
2022/07/03 01:01:38;;;;;;;;;;;12.50;99.90;;;;;;5072648;28;19913;-80
2022/07/03 01:04:04;;;;;;;;;;;12.50;99.90;;;;;;5074772;28;20310;-80
2022/07/03 01:06:33;;;;;;;;;;;12.50;99.90;;;;;;5074752;28;19914;-80
2022/07/03 01:09:00;;;;;;;;;;;12.60;99.90;;;;;;5075227;28;19963;-80
2022/07/03 01:11:29;;;;;;;;;;;12.60;99.90;;;;;;5072996;28;19916;-80
2022/07/03 01:13:57;;;;;;;;;;;12.50;99.90;;;;;;5074240;28;19915;-79
2022/07/03 01:16:26;;;;;;;;;;;12.30;99.90;;;;;;5073399;28;20362;-80
2022/07/03 01:18:59;;;;;;;;;;;12.30;99.90;;;;;;5074889;28;20316;-80
2022/07/03 01:21:33;;;;;;;;;;;12.30;99.90;;;;;;5074435;28;19955;-80
2022/07/03 01:23:59;;;;;;;;;;;12.20;99.90;;;;;;5074286;28;19920;-79
2022/07/03 01:26:27;;;;;;;;;;;12.20;99.90;;;;;;5073340;28;20302;-80
2022/07/03 01:28:52;;;;;;;;;;;12.20;99.90;;;;;;5074690;28;19931;-80
2022/07/03 01:31:19;;;;;;;;;;;12.30;99.90;;;;;;5073829;28;20365;-79
2022/07/03 01:33:46;;;;;;;;;;;12.20;99.90;;;;;;5072857;28;20430;-80
2022/07/03 01:36:13;;;;;;;;;;;12.10;99.90;;;;;;5074836;28;19909;-80
2022/07/03 01:38:42;;;;;;;;;;;12.10;99.90;;;;;;5073015;28;19909;-80
2022/07/03 01:41:08;;;;;;;;;;;12.10;99.90;;;;;;5074905;28;19908;-80
2022/07/03 01:43:36;;;;;;;;;;;12.10;99.90;;;;;;5073433;28;19951;-79
2022/07/03 01:46:02;;;;;;;;;;;12.20;99.90;;;;;;5074076;28;19919;-79
2022/07/03 01:48:29;;;;;;;;;;;12.20;99.90;;;;;;5072903;28;20370;-79
2022/07/03 01:50:55;;;;;;;;;;;12.20;99.90;;;;;;5072881;28;19916;-79
2022/07/03 01:53:23;;;;;;;;;;;12.30;99.90;;;;;;5071975;28;19966;-79
2022/07/03 01:55:50;;;;;;;;;;;12.30;99.90;;;;;;5074019;28;20365;-79
2022/07/03 01:58:15;;;;;;;;;;;12.40;99.90;;;;;;5073835;28;20195;-79
2022/07/03 02:00:41;;;;;;;;;;;12.40;99.90;;;;;;5074089;28;19909;-80
2022/07/03 02:03:06;;;;;;;;;;;12.30;99.90;;;;;;5071728;28;20276;-79
2022/07/03 02:05:32;;;;;;;;;;;12.20;99.90;;;;;;5073153;28;19919;-79
2022/07/03 02:08:08;;;;;;;;;;;12.20;99.90;;;;;;5074192;28;19954;-80
2022/07/03 02:10:37;;;;;;;;;;;12.10;99.90;;;;;;5073049;28;20064;-80
2022/07/03 02:13:14;;;;;;;;;;;12.10;99.90;;;;;;5072064;28;19923;-80
2022/07/03 02:15:42;;;;;;;;;;;12.10;99.90;;;;;;5074075;28;19966;-79
2022/07/03 02:18:17;;;;;;;;;;;12.10;99.90;;;;;;5073767;28;20300;-80
2022/07/03 02:20:46;;;;;;;;;;;12.10;99.90;;;;;;5066870;28;19916;-79
2022/07/03 02:23:13;;;;;;;;;;;12.00;99.90;;;;;;5072809;28;19965;-80
2022/07/03 02:25:40;;;;;;;;;;;12.00;99.90;;;;;;5072489;28;20353;-80
2022/07/03 02:28:11;;;;;;;;;;;12.00;99.90;;;;;;5068893;28;20158;-80
2022/07/03 02:30:39;;;;;;;;;;;12.00;99.90;;;;;;5073036;28;19998;-80
2022/07/03 02:33:06;;;;;;;;;;;12.00;99.90;;;;;;5072566;28;20020;-80
2022/07/03 02:35:33;;;;;;;;;;;12.10;99.90;;;;;;5073899;28;19908;-80
2022/07/03 02:37:58;;;;;;;;;;;12.10;99.90;;;;;;5072342;28;19912;-79
2022/07/03 02:40:36;;;;;;;;;;;12.00;99.90;;;;;;5073509;28;19908;-80
2022/07/03 02:43:11;;;;;;;;;;;12.00;99.90;;;;;;5072932;28;19908;-80
2022/07/03 02:45:55;;;;;;;;;;;11.90;99.90;;;;;;5073439;28;20339;-80
2022/07/03 02:48:40;;;;;;;;;;;11.90;99.90;;;;;;5073012;28;19940;-80
2022/07/03 02:51:09;;;;;;;;;;;11.90;99.90;;;;;;5067864;28;19908;-80
2022/07/03 02:53:41;;;;;;;;;;;11.80;99.90;;;;;;5071833;28;19908;-79
2022/07/03 02:56:24;;;;;;;;;;;11.90;99.90;;;;;;5073241;28;19982;-80
2022/07/03 02:59:14;;;;;;;;;;;11.90;99.90;;;;;;5071620;28;19979;-80
2022/07/03 03:01:47;;;;;;;;;;;11.90;99.90;;;;;;5066965;28;20375;-80
2022/07/03 03:04:15;;;;;;;;;;;11.80;99.90;;;;;;5072289;28;19908;-80
2022/07/03 03:06:42;;;;;;;;;;;11.70;99.90;;;;;;5072536;28;19909;-79
2022/07/03 03:09:13;;;;;;;;;;;11.70;99.90;;;;;;5071149;28;19909;-80
2022/07/03 03:11:38;;;;;;;;;;;11.80;99.90;;;;;;5071268;28;19959;-80
2022/07/03 03:14:05;;;;;;;;;;;11.80;99.90;;;;;;5071180;28;19915;-80
2022/07/03 03:16:31;;;;;;;;;;;11.90;99.90;;;;;;5072889;28;20304;-80
2022/07/03 03:18:56;;;;;;;;;;;11.90;99.90;;;;;;5072531;28;19912;-80
2022/07/03 03:21:23;;;;;;;;;;;12.10;99.90;;;;;;5072363;28;19913;-79
2022/07/03 03:23:49;;;;;;;;;;;12.20;99.90;;;;;;5072919;28;19927;-80
2022/07/03 03:26:17;;;;;;;;;;;12.30;99.90;;;;;;5073696;28;19961;-80
2022/07/03 03:28:43;;;;;;;;;;;12.50;99.90;;;;;;5069059;28;20408;-80
2022/07/03 03:31:09;;;;;;;;;;;12.60;99.90;;;;;;5072004;28;19909;-81
2022/07/03 03:33:45;;;;;;;;;;;12.60;99.90;;;;;;5072744;28;19909;-80
2022/07/03 03:36:11;;;;;;;;;;;12.60;99.90;;;;;;5073319;28;19931;-79
2022/07/03 03:38:37;;;;;;;;;;;12.60;99.90;;;;;;5074016;28;20445;-80
2022/07/03 03:41:03;;;;;;;;;;;12.50;99.90;;;;;;5072802;28;20003;-80
2022/07/03 03:43:29;;;;;;;;;;;12.40;99.90;;;;;;5073539;28;19956;-80
2022/07/03 03:45:55;;;;;;;;;;;12.30;99.90;;;;;;5073280;28;19908;-80
2022/07/03 03:48:21;;;;;;;;;;;12.30;99.90;;;;;;5072111;28;19974;-80
2022/07/03 03:50:46;;;;;;;;;;;12.40;99.90;;;;;;5072426;28;19912;-79
2022/07/03 03:53:12;;;;;;;;;;;12.50;99.90;;;;;;5072566;28;19975;-80
2022/07/03 03:55:51;;;;;;;;;;;12.60;99.90;;;;;;5072149;28;20064;-80
2022/07/03 03:58:17;;;;;;;;;;;12.60;99.90;;;;;;5067695;28;19935;-80
2022/07/03 04:00:42;;;;;;;;;;;12.70;99.90;;;;;;5073849;28;20365;-80
2022/07/03 04:03:08;;;;;;;;;;;12.90;99.90;;;;;;5072583;28;19908;-80
2022/07/03 04:05:33;;;;;;;;;;;13.20;99.90;;;;;;5073863;28;19923;-80
2022/07/03 04:07:58;;;;;;;;;;;13.30;99.90;;;;;;5073119;28;19905;-79
2022/07/03 04:10:24;;;;;;;;;;;13.40;99.90;;;;;;5073694;28;19923;-80
2022/07/03 04:12:49;;;;;;;;;;;13.60;99.90;;;;;;5071964;28;19913;-80
2022/07/03 04:15:15;;;;;;;;;;;13.70;99.90;;;;;;5065509;28;19909;-79
2022/07/03 04:17:40;;;;;;;;;;;13.80;99.90;;;;;;5073959;28;19915;-80
2022/07/03 04:20:06;;;;;;;;;;;14.00;99.90;;;;;;5074141;28;20396;-80
2022/07/03 04:22:32;;;;;;;;;;;14.10;99.90;;;;;;5071789;28;20273;-79
2022/07/03 04:24:57;;;;;;;;;;;14.10;99.90;;;;;;5073395;28;20007;-79
2022/07/03 04:27:23;;;;;;;;;;;14.30;99.90;;;;;;5071963;28;19909;-80
2022/07/03 04:29:48;;;;;;;;;;;14.40;99.90;;;;;;5072201;28;19908;-80
2022/07/03 04:32:14;;;;;;;;;;;14.50;99.90;;;;;;5073265;28;20003;-80
2022/07/03 04:34:39;;;;;;;;;;;14.50;99.90;;;;;;5073749;28;19909;-79
2022/07/03 04:37:05;;;;;;;;;;;14.50;99.90;;;;;;5074274;28;19991;-80
2022/07/03 04:39:30;;;;;;;;;;;14.40;99.90;;;;;;5074402;28;19909;-80
2022/07/03 04:41:55;;;;;;;;;;;14.40;99.90;;;;;;5074122;28;19908;-79
2022/07/03 04:44:21;;;;;;;;;;;14.50;99.90;;;;;;5073922;28;19908;-80
2022/07/03 04:46:46;;;;;;;;;;;14.60;99.90;;;;;;5074395;28;19912;-80
2022/07/03 04:49:12;;;;;;;;;;;14.70;99.90;;;;;;5073543;28;20323;-80
2022/07/03 04:51:37;;;;;;;;;;;14.90;99.90;;;;;;5073981;28;19912;-80
2022/07/03 04:54:03;;;;;;;;;;;14.90;99.90;;;;;;5072597;28;20186;-80
2022/07/03 04:56:28;;;;;;;;;;;15.00;99.90;;;;;;5073541;28;19932;-80
2022/07/03 04:58:54;;;;;;;;;;;15.20;99.90;;;;;;5075985;28;19920;-79
2022/07/03 05:01:19;;;;;;;;;;;15.50;99.90;;;;;;5074369;28;19942;-81
2022/07/03 05:03:45;;;;;;;;;;;15.60;99.90;;;;;;5073976;28;19909;-80
2022/07/03 05:06:10;;;;;;;;;;;15.50;99.90;;;;;;5078018;28;20393;-80
2022/07/03 05:08:36;;;;;;;;;;;15.60;99.90;;;;;;5077186;28;19916;-80
2022/07/03 05:11:01;;;;;;;;;;;15.60;99.90;;;;;;5078496;28;20007;-80
2022/07/03 05:13:27;;;;;;;;;;;15.60;99.90;;;;;;5071235;28;19919;-81
2022/07/03 05:15:52;;;;;;;;;;;15.70;99.90;;;;;;5079439;28;19908;-80
2022/07/03 05:18:18;;;;;;;;;;;15.80;99.90;;;;;;5070297;28;19908;-81
2022/07/03 05:20:43;;;;;;;;;;;16.10;99.90;;;;;;5078696;28;19999;-81
2022/07/03 05:23:09;;;;;;;;;;;16.20;99.90;;;;;;5077248;28;19916;-81
2022/07/03 05:25:34;;;;;;;;;;;16.40;99.90;;;;;;5079473;28;19915;-79
2022/07/03 05:28:00;;;;;;;;;;;16.70;99.90;;;;;;5079382;28;19909;-80
2022/07/03 05:30:26;;;;;;;;;;;16.90;99.90;;;;;;5083853;28;20332;-80
2022/07/03 05:32:53;;;;;;;;;;;16.90;99.90;;;;;;5073478;28;19912;-81
2022/07/03 05:35:18;;;;;;;;;;;16.90;99.90;;;;;;5073933;28;19960;-80
2022/07/03 05:37:44;;;;;;;;;;;17.00;99.90;;;;;;5075198;28;19935;-81
2022/07/03 05:40:10;;;;;;;;;;;17.10;99.90;;;;;;5074966;28;19915;-81
2022/07/03 05:42:35;;;;;;;;;;;17.30;99.90;;;;;;5073869;28;19908;-81
2022/07/03 05:45:01;;;;;;;;;;;17.30;99.90;;;;;;5074017;28;20320;-79
2022/07/03 05:47:27;;;;;;;;;;;17.50;99.90;;;;;;5074550;28;19912;-81
2022/07/03 05:49:53;;;;;;;;;;;17.70;99.90;;;;;;5075519;28;19936;-81
2022/07/03 05:52:18;;;;;;;;;;;17.80;99.90;;;;;;5075805;28;20010;-82
2022/07/03 05:54:44;;;;;;;;;;;18.20;99.90;;;;;;5076500;28;19952;-81
2022/07/03 05:57:09;;;;;;;;;;;19.60;99.90;;;;;;5076011;28;19908;-81
2022/07/03 05:59:35;;;;;;;;;;;20.50;99.90;;;;;;5074325;28;20407;-80
2022/07/03 06:02:01;;;;;;;;;;;20.40;99.90;;;;;;5075071;28;19909;-81
2022/07/03 06:04:27;;;;;;;;;;;21.60;99.90;;;;;;5075993;28;20054;-82
2022/07/03 06:06:54;;;;;;;;;;;22.00;99.90;;;;;;5075488;28;19954;-81
2022/07/03 06:09:20;;;;;;;;;;;22.30;99.90;;;;;;5074733;28;19915;-81
2022/07/03 06:11:47;;;;;;;;;;;22.10;99.90;;;;;;5074291;28;19913;-81
2022/07/03 06:14:13;;;;;;;;;;;22.00;99.90;;;;;;5075665;28;19908;-81
2022/07/03 06:16:38;;;;;;;;;;;21.40;99.90;;;;;;5075482;28;19914;-81
2022/07/03 06:19:04;;;;;;;;;;;22.10;99.90;;;;;;5075916;28;20328;-80
2022/07/03 06:21:29;;;;;;;;;;;22.60;99.90;;;;;;5076195;28;19909;-80
2022/07/03 06:23:55;;;;;;;;;;;23.00;99.90;;;;;;5074559;28;19923;-80
2022/07/03 06:26:20;;;;;;;;;;;22.20;99.90;;;;;;5076093;28;19909;-80
2022/07/03 06:28:46;;;;;;;;;;;21.10;99.90;;;;;;5072834;28;20541;-80
2022/07/03 06:31:11;;;;;;;;;;;21.50;99.90;;;;;;5076405;28;19919;-80
2022/07/03 06:33:37;;;;;;;;;;;22.60;99.90;;;;;;5068659;28;19913;-80
2022/07/03 06:36:02;;;;;;;;;;;23.40;99.90;;;;;;5076345;28;19954;-79
2022/07/03 06:38:28;;;;;;;;;;;22.80;99.90;;;;;;5076796;28;19943;-80
2022/07/03 06:40:53;;;;;;;;;;;23.40;99.90;;;;;;5075110;28;20276;-81
2022/07/03 06:43:19;;;;;;;;;;;23.70;99.90;;;;;;5075583;28;19908;-81
2022/07/03 06:45:44;;;;;;;;;;;24.00;98.50;;;;;;5075318;28;21574;-80
2022/07/03 06:48:10;;;;;;;;;;;24.20;97.80;;;;;;5074700;28;19908;-80
2022/07/03 06:50:35;;;;;;;;;;;24.10;97.00;;;;;;5075106;28;19936;-81
2022/07/03 06:53:01;;;;;;;;;;;24.00;97.20;;;;;;5074355;28;19971;-81
2022/07/03 06:55:26;;;;;;;;;;;24.40;97.80;;;;;;5074309;28;19955;-81
2022/07/03 06:57:52;;;;;;;;;;;24.80;96.40;;;;;;5076075;28;19908;-81
2022/07/03 07:00:18;;;;;;;;;;;25.00;96.70;;;;;;5074382;28;19974;-80
2022/07/03 07:02:43;;;;;;;;;;;24.70;94.80;;;;;;5077060;28;19930;-81
2022/07/03 07:05:09;;;;;;;;;;;24.70;95.60;;;;;;5077815;28;20380;-80
2022/07/03 07:07:34;;;;;;;;;;;25.00;95.10;;;;;;5072104;28;19909;-81
2022/07/03 07:10:00;;;;;;;;;;;25.30;95.10;;;;;;5071103;28;19912;-81
2022/07/03 07:12:25;;;;;;;;;;;25.20;93.30;;;;;;5071801;28;19925;-80
2022/07/03 07:14:51;;;;;;;;;;;25.10;93.70;;;;;;5073380;28;19908;-78
2022/07/03 07:17:17;;;;;;;;;;;25.30;93.70;;;;;;5072275;28;19908;-81
2022/07/03 07:19:42;;;;;;;;;;;25.60;91.20;;;;;;5071144;28;20488;-82
2022/07/03 07:22:08;;;;;;;;;;;25.90;92.50;;;;;;5072717;28;20373;-81
2022/07/03 07:24:33;;;;;;;;;;;25.90;92.10;;;;;;5075007;28;20293;-80
2022/07/03 07:26:59;;;;;;;;;;;26.30;92.80;;;;;;5075364;28;19950;-82
2022/07/03 07:29:24;;;;;;;;;;;26.40;91.90;;;;;;5078154;28;19908;-82
2022/07/03 07:31:50;;;;;;;;;;;26.40;91.00;;;;;;5077647;28;19916;-81
2022/07/03 07:34:15;;;;;;;;;;;26.30;90.80;;;;;;5075382;28;20370;-82
2022/07/03 07:36:41;;;;;;;;;;;26.40;90.20;;;;;;5075097;28;20106;-81
2022/07/03 07:39:06;;;;;;;;;;;26.10;88.70;;;;;;5074949;28;19920;-81
2022/07/03 07:41:32;;;;;;;;;;;26.40;87.40;;;;;;5074237;28;19923;-79
2022/07/03 07:43:58;;;;;;;;;;;27.00;88.40;;;;;;5075593;28;19909;-82
2022/07/03 07:46:24;;;;;;;;;;;27.10;88.40;;;;;;5076602;28;19930;-80
2022/07/03 07:48:49;;;;;;;;;;;26.80;88.40;;;;;;5077554;28;19912;-81
2022/07/03 07:51:16;;;;;;;;;;;27.00;88.30;;;;;;5077258;28;20397;-81
2022/07/03 07:53:41;;;;;;;;;;;27.20;86.90;;;;;;5074146;28;19919;-81
2022/07/03 07:56:07;;;;;;;;;;;27.30;86.10;;;;;;5078811;28;19913;-81
2022/07/03 07:58:32;;;;;;;;;;;27.40;84.50;;;;;;5073926;28;19958;-81
2022/07/03 08:06:26;;;;;;;;;;;28.80;81.70;;;;;;5078292;28;19920;-80
2022/07/03 08:08:52;;;;;;;;;;;28.70;81.60;;;;;;5077524;28;19913;-81
2022/07/03 08:11:17;;;;;;;;;;;28.80;80.90;;;;;;5075975;28;20353;-81
2022/07/03 08:13:43;;;;;;;;;;;28.70;77.50;;;;;;5074036;28;19913;-78
2022/07/03 08:16:09;;;;;;;;;;;28.70;80.70;;;;;;5076629;28;20364;-81
2022/07/03 08:18:34;;;;;;;;;;;28.70;78.40;;;;;;5074458;28;19924;-78
2022/07/03 08:21:00;;;;;;;;;;;28.70;82.10;;;;;;5076677;28;19915;-80
2022/07/03 08:23:25;;;;;;;;;;;28.70;81.00;;;;;;5074695;28;19916;-81
2022/07/03 08:25:51;;;;;;;;;;;29.40;82.80;;;;;;5077051;28;20383;-81
2022/07/03 08:28:16;;;;;;;;;;;29.80;75.70;;;;;;5072101;28;19912;-82
2022/07/03 08:30:42;;;;;;;;;;;29.50;78.10;;;;;;5068488;28;19919;-81
2022/07/03 08:33:07;;;;;;;;;;;29.70;80.80;;;;;;5071650;28;19912;-81
2022/07/03 08:35:33;;;;;;;;;;;30.20;75.30;;;;;;5072868;28;19908;-81
2022/07/03 08:37:58;;;;;;;;;;;29.80;75.20;;;;;;5073368;28;19983;-82
2022/07/03 08:40:24;;;;;;;;;;;30.30;77.50;;;;;;5080054;28;19909;-81
2022/07/03 08:42:52;;;;;;;;;;;30.00;73.50;;;;;;5078699;28;19917;-81
2022/07/03 08:45:18;;;;;;;;;;;30.60;74.40;;;;;;5079018;28;19908;-82
2022/07/03 08:47:44;;;;;;;;;;;30.70;72.00;;;;;;5078456;28;19913;-80
2022/07/03 08:50:12;;;;;;;;;;;30.90;75.20;;;;;;5078473;28;19908;-80
2022/07/03 08:52:38;;;;;;;;;;;30.80;71.70;;;;;;5076518;28;20362;-81
2022/07/03 08:55:04;;;;;;;;;;;31.20;67.60;;;;;;5077314;28;19927;-79
2022/07/03 08:57:33;;;;;;;;;;;30.50;72.50;;;;;;5077674;28;19951;-80
2022/07/03 09:00:00;;;;;;;;;;;31.50;69.80;;;;;;5078817;28;19909;-81
2022/07/03 09:02:26;;;;;;;;;;;31.10;69.10;;;;;;5072572;28;19912;-79
2022/07/03 09:04:51;;;;;;;;;;;31.20;70.90;;;;;;5075700;28;19923;-82
2022/07/03 09:07:20;;;;;;;;;;;31.30;64.80;;;;;;5076109;28;19939;-81
2022/07/03 09:09:46;;;;;;;;;;;31.20;69.40;;;;;;5075343;28;19927;-79
2022/07/03 09:12:13;;;;;;;;;;;31.60;66.60;;;;;;5075262;28;19912;-82
2022/07/03 09:14:38;;;;;;;;;;;32.00;70.80;;;;;;5074072;28;19916;-81
2022/07/03 09:17:05;;;;;;;;;;;30.90;65.30;;;;;;5076546;28;19908;-79
2022/07/03 09:19:47;;;;;;;;;;;30.60;65.30;;;;;;5075432;28;19912;-82
2022/07/03 09:22:18;;;;;;;;;;;30.80;74.10;;;;;;5076073;28;20358;-81
2022/07/03 09:24:44;;;;;;;;;;;31.10;70.90;;;;;;5075955;28;19924;-81
2022/07/03 09:27:10;;;;;;;;;;;31.20;63.40;;;;;;5072411;28;19909;-81
2022/07/03 09:29:35;;;;;;;;;;;31.20;63.70;;;;;;5079170;28;19960;-81
2022/07/03 09:32:01;;;;;;;;;;;30.70;60.40;;;;;;5077047;28;19912;-81
2022/07/03 09:34:27;;;;;;;;;;;30.60;60.90;;;;;;5075590;28;20302;-81
2022/07/03 09:36:52;;;;;;;;;;;30.40;64.30;;;;;;5076754;28;19916;-79
2022/07/03 09:39:18;;;;;;;;;;;31.10;63.40;;;;;;5076631;28;19967;-81
2022/07/03 09:41:52;;;;;;;;;;;30.40;61.70;;;;;;5078859;28;19908;-81
2022/07/03 09:44:33;;;;;;;;;;;31.40;64.40;;;;;;5076114;28;20374;-81
2022/07/03 09:47:15;;;;;;;;;;;31.70;64.90;;;;;;5076170;28;19961;-79
2022/07/03 09:49:54;;;;;;;;;;;31.30;61.90;;;;;;5077171;28;19916;-79
2022/07/03 09:52:26;;;;;;;;;;;31.40;71.70;;;;;;5078319;28;19927;-80
2022/07/03 09:54:51;;;;;;;;;;;32.00;67.70;;;;;;5078059;28;19908;-80
2022/07/03 09:57:17;;;;;;;;;;;32.60;66.00;;;;;;5078929;28;19991;-78
2022/07/03 09:59:43;;;;;;;;;;;32.30;63.50;;;;;;5078408;28;20017;-80
2022/07/03 10:02:08;;;;;;;;;;;32.60;65.90;;;;;;5077787;28;20237;-81
2022/07/03 10:04:34;;;;;;;;;;;32.30;62.10;;;;;;5079491;28;19923;-78
2022/07/03 10:06:59;;;;;;;;;;;31.30;64.10;;;;;;5078812;28;19995;-79
2022/07/03 10:09:26;;;;;;;;;;;31.20;63.70;;;;;;5079263;28;19909;-79
2022/07/03 10:11:54;;;;;;;;;;;32.10;63.20;;;;;;5077186;28;19936;-80
2022/07/03 10:14:21;;;;;;;;;;;32.40;63.80;;;;;;5079346;28;19915;-79
2022/07/03 10:16:47;;;;;;;;;;;32.50;61.30;;;;;;5081017;28;19953;-80
2022/07/03 10:19:22;;;;;;;;;;;32.30;64.60;;;;;;5081059;28;19909;-80
2022/07/03 10:21:51;;;;;;;;;;;31.80;61.70;;;;;;5077851;28;19908;-79
2022/07/03 10:24:18;;;;;;;;;;;32.00;66.10;;;;;;5082918;28;19920;-78
2022/07/03 10:26:43;;;;;;;;;;;31.50;66.70;;;;;;5094299;28;19912;-78
2022/07/03 10:29:10;;;;;;;;;;;31.80;66.40;;;;;;5092854;28;19908;-78
2022/07/03 10:31:36;;;;;;;;;;;32.10;66.20;;;;;;5092768;28;19916;-79
2022/07/03 10:34:02;;;;;;;;;;;32.60;63.50;;;;;;5091397;28;20007;-79
2022/07/03 10:36:28;;;;;;;;;;;32.40;59.50;;;;;;5091508;28;19897;-78
2022/07/03 10:38:55;;;;;;;;;;;32.40;61.30;;;;;;5093908;28;19896;-78
2022/07/03 10:46:52;;;;;;;;;;;32.20;64.20;;;;;;5077103;28;19915;-79
2022/07/03 10:49:18;;;;;;;;;;;32.60;62.30;;;;;;5073517;28;19913;-79
2022/07/03 10:52:00;;;;;;;;;;;32.00;62.10;;;;;;5070708;28;20370;-79
2022/07/03 10:54:28;;;;;;;;;;;32.40;64.10;;;;;;5072395;28;20320;-79
2022/07/03 10:57:02;;;;;;;;;;;32.00;64.20;;;;;;5072601;28;20380;-79
2022/07/03 10:59:40;;;;;;;;;;;32.00;63.00;;;;;;5072053;28;20419;-79
2022/07/03 11:02:19;;;;;;;;;;;32.40;59.70;;;;;;5057346;28;19913;-80
2022/07/03 11:04:56;;;;;;;;;;;31.90;62.70;;;;;;5066490;28;19909;-79
2022/07/03 11:07:22;;;;;;;;;;;32.10;63.20;;;;;;5072299;28;19909;-80
2022/07/03 11:10:07;;;;;;;;;;;32.40;64.30;;;;;;5070730;28;20285;-80
2022/07/03 11:12:52;;;;;;;;;;;31.50;57.90;;;;;;5063466;28;20329;-82
2022/07/03 11:15:32;;;;;;;;;;;31.50;64.40;;;;;;5075066;28;20292;-79
2022/07/03 11:18:17;;;;;;;;;;;31.30;62.90;;;;;;5071853;28;19923;-79
2022/07/03 11:20:43;;;;;;;;;;;32.30;59.00;;;;;;5070302;28;19943;-82
2022/07/03 11:23:30;;;;;;;;;;;32.20;56.00;;;;;;5069386;28;20435;-79
2022/07/03 11:25:58;;;;;;;;;;;31.60;57.70;;;;;;5051773;28;19909;-83
2022/07/03 11:28:32;;;;;;;;;;;31.70;63.40;;;;;;5065486;28;19916;-80
2022/07/03 11:33:44;;;;;;;;;;;31.40;53.40;;;;;;5070877;28;19978;-82
2022/07/03 11:36:10;;;;;;;;;;;30.80;56.80;;;;;;5071593;28;19909;-80
2022/07/03 11:38:36;;;;;;;;;;;31.40;66.00;;;;;;5071689;28;19909;-79
2022/07/03 11:41:05;;;;;;;;;;;32.50;61.20;;;;;;5070278;28;20000;-80
2022/07/03 11:43:31;;;;;;;;;;;32.90;61.50;;;;;;5070136;28;19909;-80
2022/07/03 11:45:57;;;;;;;;;;;33.10;61.90;;;;;;5078313;28;20002;-79
2022/07/03 11:48:23;;;;;;;;;;;32.90;60.80;;;;;;5071954;28;19908;-79
2022/07/03 11:50:49;;;;;;;;;;;33.20;58.90;;;;;;5071555;28;19915;-79
2022/07/03 11:53:15;;;;;;;;;;;32.90;54.30;;;;;;5069306;28;19916;-79
2022/07/03 11:55:47;;;;;;;;;;;30.90;53.50;;;;;;5071415;28;19912;-79
2022/07/03 11:58:13;;;;;;;;;;;30.90;64.10;;;;;;5071135;28;19915;-80
2022/07/03 12:00:38;;;;;;;;;;;32.00;57.40;;;;;;5071567;28;20003;-79
2022/07/03 12:03:04;;;;;;;;;;;31.50;52.30;;;;;;5070753;28;19912;-80
2022/07/03 12:05:30;;;;;;;;;;;31.20;62.10;;;;;;5071404;28;19916;-81
2022/07/03 12:08:02;;;;;;;;;;;31.60;57.70;;;;;;5071338;28;20091;-80
2022/07/03 12:10:41;;;;;;;;;;;31.80;63.60;;;;;;5071354;28;19982;-81
2022/07/03 12:13:22;;;;;;;;;;;32.20;58.10;;;;;;5069626;28;19920;-82
2022/07/03 12:15:49;;;;;;;;;;;32.60;63.00;;;;;;5074644;28;19909;-80
2022/07/03 12:18:15;;;;;;;;;;;32.70;57.30;;;;;;5075950;28;20003;-82
2022/07/03 12:20:40;;;;;;;;;;;32.60;52.60;;;;;;5075954;28;19915;-81
2022/07/03 12:23:06;;;;;;;;;;;32.40;56.30;;;;;;5074858;28;20351;-79
2022/07/03 12:25:31;;;;;;;;;;;32.20;52.50;;;;;;5074017;28;19916;-79
2022/07/03 12:27:57;;;;;;;;;;;32.20;63.20;;;;;;5073807;28;19962;-79
2022/07/03 12:30:25;;;;;;;;;;;32.50;53.10;;;;;;5075501;28;19909;-81
2022/07/03 12:32:51;;;;;;;;;;;32.90;51.70;;;;;;5074729;28;20378;-81
2022/07/03 12:35:34;;;;;;;;;;;34.30;57.00;;;;;;5074726;28;20161;-79
2022/07/03 12:38:00;;;;;;;;;;;35.70;55.00;;;;;;5075123;28;19940;-79
2022/07/03 12:40:25;;;;;;;;;;;36.40;51.30;;;;;;5075001;28;19978;-79
2022/07/03 12:42:52;;;;;;;;;;;37.30;48.30;;;;;;5073706;28;20330;-83
2022/07/03 12:45:21;;;;;;;;;;;37.30;46.20;;;;;;5078842;28;19912;-80
2022/07/03 12:47:57;;;;;;;;;;;38.00;40.90;;;;;;5074874;28;19913;-82
2022/07/03 12:50:23;;;;;;;;;;;38.60;45.60;;;;;;5074858;28;19908;-79
2022/07/03 12:52:50;;;;;;;;;;;38.50;43.70;;;;;;5074223;28;19913;-79
2022/07/03 12:55:27;;;;;;;;;;;39.00;42.90;;;;;;5073651;28;20013;-79
2022/07/03 13:00:55;;;;;;;;;;;36.70;44.70;;;;;;5054459;28;19935;-83
2022/07/03 13:03:31;;;;;;;;;;;38.40;45.20;;;;;;5060669;28;19909;-79
2022/07/03 13:05:56;;;;;;;;;;;38.60;43.20;;;;;;5074523;28;19916;-79
2022/07/03 13:08:22;;;;;;;;;;;39.10;45.70;;;;;;5074292;28;19909;-79
2022/07/03 13:10:58;;;;;;;;;;;39.00;45.30;;;;;;5073011;28;20050;-80
2022/07/03 13:13:24;;;;;;;;;;;38.30;38.60;;;;;;5072847;28;19912;-79
2022/07/03 13:15:49;;;;;;;;;;;38.00;41.60;;;;;;5074466;28;19909;-81
2022/07/03 13:18:15;;;;;;;;;;;37.90;43.10;;;;;;5074516;28;20020;-80
2022/07/03 13:20:41;;;;;;;;;;;38.80;44.90;;;;;;5074587;28;20026;-79
2022/07/03 13:23:06;;;;;;;;;;;39.30;41.60;;;;;;5071463;28;20277;-79
2022/07/03 13:25:33;;;;;;;;;;;39.30;42.90;;;;;;5073608;28;19912;-80
2022/07/03 13:28:09;;;;;;;;;;;39.60;43.30;;;;;;5074260;28;19908;-79
2022/07/03 13:30:35;;;;;;;;;;;39.10;42.60;;;;;;5074189;28;19909;-79
2022/07/03 13:33:02;;;;;;;;;;;38.30;46.20;;;;;;5073930;28;19913;-80
2022/07/03 13:35:28;;;;;;;;;;;38.90;41.90;;;;;;5073974;28;20006;-79
2022/07/03 13:37:53;;;;;;;;;;;39.30;40.60;;;;;;5074719;28;19944;-79
2022/07/03 13:40:19;;;;;;;;;;;38.90;41.10;;;;;;5074713;28;19923;-80
2022/07/03 13:42:44;;;;;;;;;;;38.90;40.90;;;;;;5073895;28;19913;-83
2022/07/03 13:45:10;;;;;;;;;;;39.10;41.80;;;;;;5068582;28;19927;-78
2022/07/03 13:47:36;;;;;;;;;;;39.50;43.60;;;;;;5072159;28;20003;-78
2022/07/03 13:50:01;;;;;;;;;;;38.50;40.80;;;;;;5070217;28;19916;-79
2022/07/03 13:52:27;;;;;;;;;;;38.60;40.30;;;;;;5065538;28;20327;-81
2022/07/03 13:54:52;;;;;;;;;;;38.80;39.00;;;;;;5071454;28;19915;-79
2022/07/03 13:57:18;;;;;;;;;;;38.10;37.10;;;;;;5074774;28;20320;-80
2022/07/03 13:59:43;;;;;;;;;;;37.60;41.00;;;;;;5075182;28;19991;-80
2022/07/03 14:02:09;;;;;;;;;;;38.60;41.80;;;;;;5068224;28;19915;-80
2022/07/03 14:04:35;;;;;;;;;;;38.60;40.70;;;;;;5075288;28;20323;-83
2022/07/03 14:07:00;;;;;;;;;;;38.70;40.80;;;;;;5075226;28;19908;-79
2022/07/03 14:09:26;;;;;;;;;;;37.80;41.80;;;;;;5075279;28;19909;-80
2022/07/03 14:11:51;;;;;;;;;;;37.90;39.40;;;;;;5058321;28;20026;-79
2022/07/03 14:14:17;;;;;;;;;;;36.70;40.60;;;;;;5068040;28;19912;-83
2022/07/03 14:16:43;;;;;;;;;;;36.80;36.80;;;;;;5074945;28;19908;-80
2022/07/03 14:19:08;;;;;;;;;;;37.40;38.80;;;;;;5077115;28;19915;-81
2022/07/03 14:21:34;;;;;;;;;;;36.80;37.40;;;;;;5074430;28;19971;-81
2022/07/03 14:23:59;;;;;;;;;;;38.10;38.70;;;;;;5074956;28;20054;-83
2022/07/03 14:34:38;;;;;;;;;;;38.60;40.70;;;;;;5073356;28;19935;-79
2022/07/03 14:37:04;;;;;;;;;;;38.50;42.30;;;;;;5070738;28;19908;-78
2022/07/03 14:39:29;;;;;;;;;;;38.30;39.40;;;;;;5072839;28;19909;-78
2022/07/03 14:41:55;;;;;;;;;;;38.20;40.90;;;;;;5072347;28;19909;-78